createdAt,value
2019-01-12T00:00:49.269Z,100877.16
2019-01-12T00:01:53.243Z,100871.34
2019-01-12T00:02:57.083Z,100879.33
2019-01-12T00:04:01.307Z,100880.22
2019-01-12T00:05:05.938Z,100877.06
2019-01-12T00:06:28.982Z,100878.38
2019-01-12T00:07:52.024Z,100873.45
2019-01-12T00:09:15.047Z,100875.23
2019-01-12T00:10:38.159Z,100870.72
2019-01-12T00:12:01.181Z,100869.41
2019-01-12T00:13:05.494Z,100868.16
2019-01-12T00:14:28.522Z,100869.84
2019-01-12T00:15:51.542Z,100869.86
2019-01-12T00:17:07.379Z,100876.70
2019-01-12T00:18:30.283Z,100872.26
2019-01-12T00:19:53.566Z,100874.95
2019-01-12T00:21:16.951Z,100867.33
2019-01-12T00:22:40.183Z,100872.29
2019-01-12T00:24:03.415Z,100871.80
2019-01-12T00:25:07.421Z,100866.41
2019-01-12T00:26:12.090Z,100871.34
2019-01-12T00:27:16.283Z,100871.34
2019-01-12T00:28:39.327Z,100871.24
2019-01-12T00:30:02.618Z,100877.06
2019-01-12T00:31:25.639Z,100872.53
2019-01-12T00:32:48.850Z,100876.05
2019-01-12T00:34:12.249Z,100873.75
2019-01-12T00:35:35.136Z,100869.68
2019-01-12T00:36:58.021Z,100877.77
2019-01-12T00:38:21.181Z,100870.11
2019-01-12T00:40:48.049Z,100880.47
2019-01-12T00:41:52.246Z,100875.04
2019-01-12T00:42:56.469Z,100877.30
2019-01-12T00:44:19.502Z,100875.07
2019-01-12T00:45:42.522Z,100875.07
2019-01-12T00:50:10.779Z,100876.97
2019-01-12T00:51:33.743Z,100880.65
2019-01-12T00:52:57.009Z,100883.38
2019-01-12T00:56:41.015Z,100883.38
2019-01-12T00:58:03.978Z,100888.77
2019-01-12T00:59:27.025Z,100882.89
2019-01-12T01:01:10.503Z,100886.07
2019-01-12T01:02:33.839Z,100894.16
2019-01-12T01:05:20.115Z,100896.06
2019-01-12T01:06:43.134Z,100888.89
2019-01-12T01:08:06.155Z,100892.53
2019-01-12T01:09:29.790Z,100895.63
2019-01-12T01:10:52.883Z,100890.23
2019-01-12T01:11:56.825Z,100897.38
2019-01-12T01:13:20.193Z,100902.77
2019-01-12T01:14:43.230Z,100898.20
2019-01-12T01:16:06.252Z,100897.72
2019-01-12T01:17:29.290Z,100912.94
2019-01-12T01:20:15.532Z,100912.48
2019-01-12T01:21:38.443Z,100912.91
2019-01-12T01:24:46.027Z,100913.73
2019-01-12T01:25:50.668Z,100913.70
2019-01-12T01:27:13.943Z,100908.28
2019-01-12T01:28:36.844Z,100911.44
2019-01-12T01:29:59.886Z,100907.39
2019-01-12T01:31:23.095Z,100910.55
2019-01-12T01:34:09.314Z,100907.45
2019-01-12T01:37:02.522Z,100907.98
2019-01-12T01:38:25.483Z,100913.34
2019-01-12T01:39:49.163Z,100908.87
2019-01-12T01:41:12.194Z,100903.47
2019-01-12T01:42:35.663Z,100907.06
2019-01-12T01:43:59.018Z,100903.47
2019-01-12T01:45:03.328Z,100906.23
2019-01-12T01:46:26.614Z,100904.42
2019-01-12T01:47:50.247Z,100900.84
2019-01-12T01:49:13.434Z,100910.70
2019-01-12T01:52:19.936Z,100909.84
2019-01-12T01:53:24.300Z,100877.55
2019-01-12T01:54:28.526Z,100924.24
2019-01-12T01:55:51.728Z,100921.98
2019-01-12T01:57:14.871Z,100912.97
2019-01-12T01:58:38.233Z,100911.11
2019-01-12T02:00:01.898Z,100911.13
2019-01-12T02:01:25.114Z,100908.90
2019-01-12T02:02:29.241Z,100910.24
2019-01-12T02:03:52.129Z,100911.63
2019-01-12T02:04:55.965Z,100913.40
2019-01-12T02:06:18.862Z,100911.59
2019-01-12T02:07:22.694Z,100919.22
2019-01-12T02:08:45.718Z,100912.91
2019-01-12T02:11:31.706Z,100914.69
2019-01-12T02:12:54.904Z,100912.39
2019-01-12T02:14:17.788Z,100907.95
2019-01-12T02:15:40.894Z,100879.00
2019-01-12T02:17:03.806Z,100904.73
2019-01-12T02:18:26.913Z,100902.49
2019-01-12T02:19:50.181Z,100906.97
2019-01-12T02:21:13.313Z,100909.66
2019-01-12T02:22:36.386Z,100906.05
2019-01-12T02:23:59.410Z,100904.70
2019-01-12T02:25:03.316Z,100906.48
2019-01-12T02:26:26.280Z,100897.96
2019-01-12T02:27:49.650Z,100896.58
2019-01-12T02:29:12.753Z,100898.78
2019-01-12T02:32:44.831Z,100905.43
2019-01-12T02:34:07.856Z,100906.81
2019-01-12T02:35:30.877Z,100913.52
2019-01-12T02:36:53.942Z,100900.04
2019-01-12T02:38:16.840Z,100901.39
2019-01-12T02:39:39.857Z,100903.66
2019-01-12T02:41:02.881Z,100900.13
2019-01-12T02:42:25.776Z,100902.30
2019-01-12T02:43:48.814Z,100906.88
2019-01-12T02:45:11.706Z,100907.80
2019-01-12T02:46:34.986Z,100902.86
2019-01-12T02:47:39.102Z,100901.52
2019-01-12T02:49:02.005Z,100908.22
2019-01-12T02:50:46.122Z,100907.80
2019-01-12T02:52:09.278Z,100905.56
2019-01-12T02:55:14.309Z,100903.84
2019-01-12T02:56:37.277Z,100910.64
2019-01-12T02:58:20.758Z,100908.87
2019-01-12T02:59:43.777Z,100909.33
2019-01-12T03:00:48.006Z,100902.67
2019-01-12T03:01:51.906Z,100899.61
2019-01-12T03:02:55.903Z,100899.64
2019-01-12T03:03:59.882Z,100904.12
2019-01-12T03:05:23.154Z,100900.50
2019-01-12T03:06:27.138Z,100902.25
2019-01-12T03:07:50.038Z,100902.25
2019-01-12T03:12:58.474Z,100906.29
2019-01-12T03:14:02.809Z,100898.73
2019-01-12T03:15:08.654Z,100895.17
2019-01-12T03:16:12.558Z,100901.91
2019-01-12T03:17:16.816Z,100896.52
2019-01-12T03:18:20.773Z,100903.26
2019-01-12T03:19:24.573Z,100904.12
2019-01-12T03:20:28.983Z,100903.14
2019-01-12T03:21:33.133Z,100897.72
2019-01-12T03:22:37.048Z,100897.28
2019-01-12T03:23:41.216Z,100898.63
2019-01-12T03:24:45.125Z,100904.94
2019-01-12T03:25:49.292Z,100895.94
2019-01-12T03:26:53.190Z,100901.76
2019-01-12T03:27:57.366Z,100897.72
2019-01-12T03:29:01.455Z,100891.83
2019-01-12T03:30:08.804Z,100890.03
2019-01-12T03:31:12.956Z,100893.15
2019-01-12T03:32:17.103Z,100895.81
2019-01-12T03:33:21.280Z,100892.72
2019-01-12T03:34:25.195Z,100893.18
2019-01-12T03:35:29.102Z,100894.47
2019-01-12T03:36:33.043Z,100892.62
2019-01-12T03:37:37.259Z,100892.23
2019-01-12T03:38:41.183Z,100896.30
2019-01-12T03:39:45.257Z,100893.18
2019-01-12T03:40:49.417Z,100892.75
2019-01-12T03:41:53.822Z,100891.86
2019-01-12T03:42:57.989Z,100891.37
2019-01-12T03:44:02.149Z,100896.67
2019-01-12T03:45:07.673Z,100894.41
2019-01-12T03:46:11.911Z,100889.91
2019-01-12T03:47:15.878Z,100892.27
2019-01-12T03:48:19.872Z,100896.77
2019-01-12T03:49:23.857Z,100885.09
2019-01-12T03:50:27.692Z,100886.50
2019-01-12T03:51:31.919Z,100887.94
2019-01-12T03:52:35.902Z,100890.67
2019-01-12T03:53:40.002Z,100887.11
2019-01-12T03:54:44.149Z,100884.45
2019-01-12T03:55:48.129Z,100884.45
2019-01-12T03:56:52.434Z,100885.36
2019-01-12T03:57:56.593Z,100883.12
2019-01-12T03:59:00.760Z,100893.83
2019-01-12T04:00:07.951Z,100887.52
2019-01-12T04:01:12.175Z,100889.38
2019-01-12T04:02:16.327Z,100881.27
2019-01-12T04:03:20.315Z,100888.43
2019-01-12T04:04:24.305Z,100882.61
2019-01-12T04:05:28.285Z,100881.27
2019-01-12T04:06:32.194Z,100880.06
2019-01-12T04:07:36.178Z,100881.16
2019-01-12T04:08:40.026Z,100882.11
2019-01-12T04:09:44.010Z,100881.77
2019-01-12T04:10:47.919Z,100887.65
2019-01-12T04:11:51.899Z,100886.79
2019-01-12T04:12:55.810Z,100885.44
2019-01-12T04:13:59.987Z,100884.09
2019-01-12T04:15:04.175Z,100882.75
2019-01-12T04:16:08.088Z,100875.09
2019-01-12T04:17:12.014Z,100881.83
2019-01-12T04:18:16.098Z,100871.48
2019-01-12T04:19:20.262Z,100874.58
2019-01-12T04:20:24.422Z,100872.28
2019-01-12T04:21:28.268Z,100868.20
2019-01-12T04:22:32.098Z,100869.01
2019-01-12T04:23:36.452Z,100873.88
2019-01-12T04:24:40.301Z,100870.41
2019-01-12T04:25:44.225Z,100864.88
2019-01-12T04:26:48.466Z,100863.16
2019-01-12T04:27:52.370Z,100860.52
2019-01-12T04:28:56.862Z,100866.43
2019-01-12T04:30:00.907Z,100861.04
2019-01-12T04:31:05.141Z,100863.73
2019-01-12T04:32:09.053Z,100864.19
2019-01-12T04:33:13.039Z,100858.80
2019-01-12T04:34:17.202Z,100865.52
2019-01-12T04:35:21.353Z,100864.59
2019-01-12T04:36:25.334Z,100869.92
2019-01-12T04:37:29.415Z,100873.05
2019-01-12T04:38:33.240Z,100870.72
2019-01-12T04:39:37.162Z,100870.69
2019-01-12T04:40:41.561Z,100869.28
2019-01-12T04:41:45.802Z,100864.75
2019-01-12T04:42:50.035Z,100876.88
2019-01-12T04:43:54.117Z,100872.84
2019-01-12T04:44:58.221Z,100869.19
2019-01-12T04:46:02.374Z,100869.12
2019-01-12T04:47:06.283Z,100869.59
2019-01-12T04:48:10.448Z,100867.36
2019-01-12T04:49:14.689Z,100868.22
2019-01-12T04:50:18.958Z,100875.38
2019-01-12T04:51:23.109Z,100876.73
2019-01-12T04:52:27.261Z,100877.16
2019-01-12T04:53:31.174Z,100880.75
2019-01-12T04:54:35.261Z,100874.47
2019-01-12T04:55:41.640Z,100871.24
2019-01-12T04:56:44.897Z,100873.02
2019-01-12T04:57:49.059Z,100873.88
2019-01-12T04:58:53.205Z,100870.30
2019-01-12T04:59:57.377Z,100861.28
2019-01-12T05:01:01.353Z,100862.05
2019-01-12T05:02:05.333Z,100865.27
2019-01-12T05:03:09.242Z,100869.38
2019-01-12T05:04:13.149Z,100868.06
2019-01-12T05:05:17.761Z,100868.92
2019-01-12T05:06:21.923Z,100871.19
2019-01-12T05:07:25.834Z,100872.53
2019-01-12T05:08:29.909Z,100870.23
2019-01-12T05:09:33.919Z,100868.42
2019-01-12T05:10:38.081Z,100861.26
2019-01-12T05:11:42.449Z,100868.79
2019-01-12T05:12:46.682Z,100868.88
2019-01-12T05:13:50.842Z,100863.03
2019-01-12T05:14:54.970Z,100871.55
2019-01-12T05:15:58.954Z,100872.47
2019-01-12T05:17:03.131Z,100864.41
2019-01-12T05:18:07.280Z,100864.47
2019-01-12T05:19:11.186Z,100870.30
2019-01-12T05:20:22.258Z,100860.89
2019-01-12T05:21:26.672Z,100860.89
2019-01-12T05:22:30.586Z,100861.31
2019-01-12T05:23:34.818Z,100865.80
2019-01-12T05:24:38.726Z,100865.77
2019-01-12T05:25:48.837Z,100863.06
2019-01-12T05:26:48.539Z,100868.42
2019-01-12T05:27:52.690Z,100863.03
2019-01-12T05:28:56.517Z,100857.18
2019-01-12T05:30:00.622Z,100860.80
2019-01-12T05:31:04.641Z,100857.22
2019-01-12T05:32:08.548Z,100867.11
2019-01-12T05:33:12.453Z,100861.72
2019-01-12T05:34:16.542Z,100857.67
2019-01-12T05:35:20.806Z,100865.63
2019-01-12T05:36:24.711Z,100860.46
2019-01-12T05:37:28.941Z,100862.33
2019-01-12T05:38:33.277Z,100860.16
2019-01-12T05:39:37.366Z,100864.75
2019-01-12T05:40:41.361Z,100866.56
2019-01-12T05:41:45.442Z,100865.55
2019-01-12T05:42:49.530Z,100869.62
2019-01-12T05:43:53.358Z,100866.56
2019-01-12T05:44:57.189Z,100867.02
2019-01-12T05:46:01.605Z,100862.55
2019-01-12T05:47:05.587Z,100862.91
2019-01-12T05:48:09.567Z,100865.61
2019-01-12T05:49:13.654Z,100870.48
2019-01-12T05:50:17.881Z,100868.67
2019-01-12T05:51:22.049Z,100868.67
2019-01-12T05:52:26.034Z,100869.12
2019-01-12T05:53:29.866Z,100870.91
2019-01-12T05:54:33.946Z,100873.61
2019-01-12T05:55:38.438Z,100879.86
2019-01-12T05:56:42.630Z,100882.55
2019-01-12T05:57:46.872Z,100874.83
2019-01-12T05:58:51.013Z,100881.14
2019-01-12T05:59:54.849Z,100874.47
2019-01-12T06:00:58.835Z,100871.77
2019-01-12T06:02:03.011Z,100870.87
2019-01-12T06:03:06.913Z,100877.59
2019-01-12T06:04:11.146Z,100875.81
2019-01-12T06:05:15.127Z,100873.88
2019-01-12T06:06:19.369Z,100870.78
2019-01-12T06:07:23.779Z,100868.55
2019-01-12T06:08:27.866Z,100872.53
2019-01-12T06:09:32.034Z,100871.24
2019-01-12T06:10:36.269Z,100869.90
2019-01-12T06:11:41.093Z,100879.77
2019-01-12T06:12:45.078Z,100874.83
2019-01-12T06:13:49.162Z,100876.58
2019-01-12T06:14:53.241Z,100872.07
2019-01-12T06:15:57.218Z,100876.12
2019-01-12T06:17:01.163Z,100877.92
2019-01-12T06:18:05.073Z,100869.84
2019-01-12T06:19:08.983Z,100870.72
2019-01-12T06:20:13.899Z,100875.59
2019-01-12T06:21:17.801Z,100872.90
2019-01-12T06:22:21.797Z,100869.68
2019-01-12T06:23:26.030Z,100868.88
2019-01-12T06:24:30.109Z,100869.77
2019-01-12T06:25:34.592Z,100872.38
2019-01-12T06:26:38.761Z,100871.16
2019-01-12T06:27:42.669Z,100870.20
2019-01-12T06:28:46.574Z,100869.84
2019-01-12T06:29:50.721Z,100868.09
2019-01-12T06:30:54.956Z,100868.52
2019-01-12T06:31:58.959Z,100868.52
2019-01-12T06:33:03.194Z,100869.86
2019-01-12T06:34:07.420Z,100864.44
2019-01-12T06:35:11.402Z,100866.65
2019-01-12T06:36:15.627Z,100858.59
2019-01-12T06:37:19.798Z,100866.22
2019-01-12T06:38:23.976Z,100864.88
2019-01-12T06:39:27.806Z,100869.31
2019-01-12T06:40:31.957Z,100872.93
2019-01-12T06:41:35.948Z,100867.11
2019-01-12T06:42:40.194Z,100869.77
2019-01-12T06:43:44.185Z,100872.90
2019-01-12T06:44:48.097Z,100881.38
2019-01-12T06:45:51.935Z,100872.34
2019-01-12T06:46:56.290Z,100871.85
2019-01-12T06:48:00.708Z,100872.38
2019-01-12T06:49:05.342Z,100870.59
2019-01-12T06:50:10.386Z,100884.97
2019-01-12T06:51:14.538Z,100875.98
2019-01-12T06:52:18.799Z,100878.19
2019-01-12T06:53:23.133Z,100877.77
2019-01-12T06:54:26.966Z,100881.35
2019-01-12T06:55:30.878Z,100887.17
2019-01-12T06:56:35.285Z,100883.95
2019-01-12T06:57:39.281Z,100886.55
2019-01-12T06:58:43.638Z,100876.66
2019-01-12T06:59:48.047Z,100880.41
2019-01-12T07:00:52.551Z,100890.23
2019-01-12T07:01:56.694Z,100885.36
2019-01-12T07:03:00.857Z,100890.17
2019-01-12T07:04:05.081Z,100884.08
2019-01-12T07:05:09.074Z,100881.48
2019-01-12T07:06:13.303Z,100884.69
2019-01-12T07:07:17.222Z,100887.84
2019-01-12T07:08:21.329Z,100880.19
2019-01-12T07:09:25.316Z,100880.63
2019-01-12T07:10:29.466Z,100885.09
2019-01-12T07:11:33.379Z,100884.17
2019-01-12T07:12:37.307Z,100885.06
2019-01-12T07:13:41.390Z,100883.25
2019-01-12T07:14:45.290Z,100874.25
2019-01-12T07:15:49.523Z,100881.38
2019-01-12T07:16:53.378Z,100880.03
2019-01-12T07:17:57.299Z,100879.64
2019-01-12T07:19:01.213Z,100856.14
2019-01-12T07:20:06.794Z,100880.92
2019-01-12T07:21:10.963Z,100884.08
2019-01-12T07:22:14.977Z,100875.92
2019-01-12T07:23:18.815Z,100879.55
2019-01-12T07:24:23.041Z,100880.41
2019-01-12T07:25:26.873Z,100889.41
2019-01-12T07:26:30.705Z,100879.05
2019-01-12T07:27:34.686Z,100890.27
2019-01-12T07:28:38.868Z,100889.84
2019-01-12T07:29:42.949Z,100887.94
2019-01-12T07:30:47.119Z,100885.73
2019-01-12T07:31:50.960Z,100886.55
2019-01-12T07:32:55.385Z,100890.58
2019-01-12T07:33:59.469Z,100891.03
2019-01-12T07:35:03.754Z,100895.11
2019-01-12T07:36:07.848Z,100886.95
2019-01-12T07:37:11.997Z,100888.73
2019-01-12T07:38:16.178Z,100899.09
2019-01-12T07:39:20.158Z,100895.08
2019-01-12T07:40:24.142Z,100891.92
2019-01-12T07:41:28.307Z,100890.14
2019-01-12T07:42:32.226Z,100889.69
2019-01-12T07:43:36.230Z,100899.98
2019-01-12T07:44:40.323Z,100894.13
2019-01-12T07:45:44.556Z,100897.72
2019-01-12T07:46:48.970Z,100898.08
2019-01-12T07:47:53.068Z,100889.49
2019-01-12T07:48:57.290Z,100900.22
2019-01-12T07:50:01.276Z,100894.83
2019-01-12T07:51:05.265Z,100892.95
2019-01-12T07:52:09.751Z,100896.97
2019-01-12T07:53:13.864Z,100893.38
2019-01-12T07:54:17.774Z,100888.88
2019-01-12T07:55:21.696Z,100893.31
2019-01-12T07:56:25.785Z,100899.14
2019-01-12T07:57:29.699Z,100895.06
2019-01-12T07:58:33.707Z,100896.77
2019-01-12T07:59:37.803Z,100900.81
2019-01-12T08:00:42.048Z,100903.05
2019-01-12T08:01:45.967Z,100898.55
2019-01-12T08:02:50.404Z,100901.20
2019-01-12T08:03:54.403Z,100904.38
2019-01-12T08:04:58.394Z,100903.91
2019-01-12T08:06:02.815Z,100909.23
2019-01-12T08:07:06.732Z,100903.88
2019-01-12T08:08:11.214Z,100902.95
2019-01-12T08:09:15.459Z,100900.63
2019-01-12T08:10:21.815Z,100897.56
2019-01-12T08:11:25.737Z,100910.12
2019-01-12T08:12:29.656Z,100901.97
2019-01-12T08:13:33.643Z,100901.51
2019-01-12T08:14:37.895Z,100900.52
2019-01-12T08:15:42.127Z,100903.25
2019-01-12T08:16:46.123Z,100896.97
2019-01-12T08:17:50.129Z,100902.79
2019-01-12T08:18:54.403Z,100894.10
2019-01-12T08:19:58.561Z,100901.84
2019-01-12T08:21:02.475Z,100899.95
2019-01-12T08:22:06.470Z,100904.08
2019-01-12T08:23:10.456Z,100886.53
2019-01-12T08:24:14.631Z,100889.62
2019-01-12T08:25:18.723Z,100889.98
2019-01-12T08:26:22.875Z,100881.50
2019-01-12T08:27:26.867Z,100886.86
2019-01-12T08:28:30.858Z,100888.64
2019-01-12T08:29:36.630Z,100876.92
2019-01-12T08:30:40.550Z,100878.17
2019-01-12T08:31:44.722Z,100876.78
2019-01-12T08:32:48.637Z,100877.25
2019-01-12T08:33:52.558Z,100878.56
2019-01-12T08:34:56.740Z,100876.75
2019-01-12T08:36:00.978Z,100878.06
2019-01-12T08:37:04.957Z,100876.15
2019-01-12T08:38:09.181Z,100881.55
2019-01-12T08:39:13.175Z,100874.09
2019-01-12T08:40:17.402Z,100876.02
2019-01-12T08:41:21.315Z,100878.31
2019-01-12T08:42:27.105Z,100878.81
2019-01-12T08:43:31.106Z,100874.66
2019-01-12T08:44:35.275Z,100876.51
2019-01-12T08:45:39.198Z,100865.75
2019-01-12T08:46:43.433Z,100867.48
2019-01-12T08:47:47.347Z,100869.33
2019-01-12T08:48:51.257Z,100862.19
2019-01-12T08:49:55.437Z,100869.80
2019-01-12T08:50:59.347Z,100861.73
2019-01-12T08:52:03.347Z,100864.40
2019-01-12T08:53:07.317Z,100865.78
2019-01-12T08:54:11.552Z,100868.45
2019-01-12T08:55:15.569Z,100860.31
2019-01-12T08:56:19.478Z,100855.30
2019-01-12T08:57:23.458Z,100858.00
2019-01-12T08:58:27.366Z,100862.88
2019-01-12T08:59:31.516Z,100857.86
2019-01-12T09:00:35.746Z,100862.34
2019-01-12T09:01:39.732Z,100859.14
2019-01-12T09:02:44.210Z,100864.86
2019-01-12T09:03:48.116Z,100850.01
2019-01-12T09:04:52.198Z,100854.06
2019-01-12T09:05:56.472Z,100851.79
2019-01-12T09:07:00.425Z,100851.71
2019-01-12T09:08:04.511Z,100847.70
2019-01-12T09:09:09.074Z,100852.17
2019-01-12T09:10:19.683Z,100849.37
2019-01-12T09:11:24.036Z,100847.13
2019-01-12T09:12:27.940Z,100840.34
2019-01-12T09:13:31.851Z,100844.78
2019-01-12T09:14:35.942Z,100850.11
2019-01-12T09:15:39.867Z,100847.77
2019-01-12T09:16:43.698Z,100843.63
2019-01-12T09:17:47.870Z,100843.59
2019-01-12T09:18:51.854Z,100850.77
2019-01-12T09:19:55.691Z,100848.07
2019-01-12T09:20:59.686Z,100845.38
2019-01-12T09:22:04.169Z,100850.77
2019-01-12T09:23:08.159Z,100844.41
2019-01-12T09:24:12.139Z,100840.32
2019-01-12T09:25:16.265Z,100842.48
2019-01-12T09:26:20.363Z,100839.28
2019-01-12T09:27:24.451Z,100836.00
2019-01-12T09:28:28.357Z,100840.09
2019-01-12T09:29:32.269Z,100837.43
2019-01-12T09:30:36.250Z,100837.39
2019-01-12T09:31:40.248Z,100841.44
2019-01-12T09:32:44.405Z,100838.24
2019-01-12T09:33:48.324Z,100843.18
2019-01-12T09:34:52.157Z,100837.73
2019-01-12T09:35:56.139Z,100839.55
2019-01-12T09:37:00.497Z,100848.50
2019-01-12T09:38:04.487Z,100832.76
2019-01-12T09:39:09.506Z,100835.89
2019-01-12T09:40:15.442Z,100830.83
2019-01-12T09:41:19.681Z,100826.66
2019-01-12T09:42:24.025Z,100833.03
2019-01-12T09:43:27.998Z,100830.30
2019-01-12T09:44:31.983Z,100837.55
2019-01-12T09:45:35.893Z,100839.83
2019-01-12T09:46:39.819Z,100834.42
2019-01-12T09:47:43.802Z,100833.92
2019-01-12T09:48:47.718Z,100801.55
2019-01-12T09:49:51.640Z,100822.77
2019-01-12T09:50:55.618Z,100822.77
2019-01-12T09:51:59.861Z,100817.37
2019-01-12T09:53:03.693Z,100823.58
2019-01-12T09:54:07.926Z,100818.13
2019-01-12T09:55:12.338Z,100821.14
2019-01-12T09:56:16.567Z,100792.70
2019-01-12T09:57:20.563Z,100823.80
2019-01-12T09:58:24.786Z,100815.74
2019-01-12T09:59:28.873Z,100814.81
2019-01-12T10:00:32.783Z,100807.13
2019-01-12T10:01:36.932Z,100808.48
2019-01-12T10:02:40.863Z,100808.41
2019-01-12T10:03:45.193Z,100811.03
2019-01-12T10:04:49.030Z,100801.95
2019-01-12T10:05:53.019Z,100805.92
2019-01-12T10:06:57.509Z,100805.42
2019-01-12T10:08:01.675Z,100803.53
2019-01-12T10:09:08.102Z,100799.01
2019-01-12T10:10:14.334Z,100798.50
2019-01-12T10:11:18.481Z,100794.83
2019-01-12T10:12:22.479Z,100803.28
2019-01-12T10:13:26.639Z,100795.59
2019-01-12T10:14:31.230Z,100795.94
2019-01-12T10:15:35.213Z,100795.05
2019-01-12T10:16:39.368Z,100791.50
2019-01-12T10:17:43.379Z,100787.02
2019-01-12T10:18:47.716Z,100785.63
2019-01-12T10:19:51.878Z,100781.95
2019-01-12T10:20:55.861Z,100774.14
2019-01-12T10:22:00.018Z,100783.05
2019-01-12T10:23:04.318Z,100780.23
2019-01-12T10:24:08.225Z,100786.56
2019-01-12T10:25:12.574Z,100781.58
2019-01-12T10:26:16.763Z,100783.82
2019-01-12T10:27:20.846Z,100780.19
2019-01-12T10:28:24.700Z,100784.24
2019-01-12T10:29:28.610Z,100782.05
2019-01-12T10:30:32.876Z,100778.38
2019-01-12T10:31:37.040Z,100769.88
2019-01-12T10:32:41.026Z,100773.05
2019-01-12T10:33:45.198Z,100775.83
2019-01-12T10:34:49.111Z,100766.80
2019-01-12T10:35:53.286Z,100762.31
2019-01-12T10:36:57.442Z,100766.80
2019-01-12T10:38:01.694Z,100771.78
2019-01-12T10:39:08.279Z,100768.66
2019-01-12T10:40:12.854Z,100766.88
2019-01-12T10:41:17.347Z,100758.77
2019-01-12T10:42:21.441Z,100773.17
2019-01-12T10:43:25.445Z,100765.53
2019-01-12T10:44:29.675Z,100767.34
2019-01-12T10:45:33.676Z,100769.67
2019-01-12T10:46:37.655Z,100773.30
2019-01-12T10:47:43.258Z,100781.02
2019-01-12T10:48:47.688Z,100784.19
2019-01-12T10:49:51.676Z,100780.48
2019-01-12T10:50:55.592Z,100786.35
2019-01-12T10:51:59.833Z,100794.88
2019-01-12T10:53:04.156Z,100797.55
2019-01-12T10:54:08.082Z,100799.78
2019-01-12T10:55:12.071Z,100793.91
2019-01-12T10:56:16.301Z,100792.05
2019-01-12T10:57:20.291Z,100777.61
2019-01-12T10:58:24.385Z,100781.12
2019-01-12T10:59:28.823Z,100768.02
2019-01-12T11:00:35.111Z,100772.08
2019-01-12T11:01:39.374Z,100758.05
2019-01-12T11:02:43.619Z,100756.70
2019-01-12T11:03:47.615Z,100750.36
2019-01-12T11:04:51.528Z,100747.23
2019-01-12T11:05:55.548Z,100744.95
2019-01-12T11:06:59.642Z,100736.38
2019-01-12T11:08:04.277Z,100726.87
2019-01-12T11:09:09.255Z,100715.92
2019-01-12T11:10:13.628Z,100716.34
2019-01-12T11:11:17.879Z,100711.36
2019-01-12T11:12:21.796Z,100707.72
2019-01-12T11:13:25.814Z,100705.02
2019-01-12T11:14:29.999Z,100706.38
2019-01-12T11:15:33.919Z,100701.38
2019-01-12T11:16:38.159Z,100701.80
2019-01-12T11:17:42.160Z,100683.26
2019-01-12T11:18:46.390Z,100684.61
2019-01-12T11:19:50.644Z,100698.55
2019-01-12T11:20:54.896Z,100696.69
2019-01-12T11:21:59.134Z,100689.45
2019-01-12T11:23:03.124Z,100688.90
2019-01-12T11:24:07.355Z,100693.34
2019-01-12T11:25:12.127Z,100696.00
2019-01-12T11:26:16.116Z,100691.01
2019-01-12T11:27:20.032Z,100683.34
2019-01-12T11:28:24.027Z,100684.25
2019-01-12T11:29:27.965Z,100685.16
2019-01-12T11:30:31.881Z,100684.30
2019-01-12T11:31:35.724Z,100677.53
2019-01-12T11:32:39.716Z,100670.91
2019-01-12T11:33:43.599Z,100677.75
2019-01-12T11:34:47.544Z,100679.11
2019-01-12T11:35:52.044Z,100679.20
2019-01-12T11:36:56.045Z,100670.70
2019-01-12T11:37:59.975Z,100675.56
2019-01-12T11:39:05.991Z,100675.23
2019-01-12T11:40:19.148Z,100671.17
2019-01-12T11:41:23.564Z,100675.15
2019-01-12T11:42:27.795Z,100668.00
2019-01-12T11:43:31.969Z,100676.16
2019-01-12T11:44:36.059Z,100674.34
2019-01-12T11:45:40.066Z,100672.25
2019-01-12T11:46:43.977Z,100672.25
2019-01-12T11:47:48.215Z,100676.48
2019-01-12T11:48:52.126Z,100675.69
2019-01-12T11:49:56.045Z,100673.53
2019-01-12T11:51:13.163Z,100679.86
2019-01-12T11:52:17.004Z,100674.92
2019-01-12T11:53:21.160Z,100678.09
2019-01-12T11:54:25.178Z,100676.70
2019-01-12T11:55:29.591Z,100680.38
2019-01-12T11:56:33.744Z,100679.16
2019-01-12T11:57:37.731Z,100677.94
2019-01-12T11:58:41.881Z,100682.92
2019-01-12T11:59:46.043Z,100674.48
2019-01-12T12:00:50.060Z,100679.50
2019-01-12T12:01:54.315Z,100670.59
2019-01-12T12:02:58.486Z,100666.55
2019-01-12T12:04:02.402Z,100674.66
2019-01-12T12:05:07.308Z,100669.25
2019-01-12T12:06:11.568Z,100669.58
2019-01-12T12:07:15.825Z,100670.93
2019-01-12T12:08:19.983Z,100664.64
2019-01-12T12:09:23.897Z,100661.39
2019-01-12T12:10:27.902Z,100658.77
2019-01-12T12:11:32.386Z,100653.75
2019-01-12T12:12:36.376Z,100659.99
2019-01-12T12:13:40.786Z,100658.13
2019-01-12T12:14:45.139Z,100653.56
2019-01-12T12:15:49.246Z,100657.54
2019-01-12T12:16:53.433Z,100651.16
2019-01-12T12:17:57.275Z,100644.72
2019-01-12T12:19:01.517Z,100638.77
2019-01-12T12:20:08.959Z,100639.61
2019-01-12T12:21:13.201Z,100636.81
2019-01-12T12:22:17.190Z,100628.23
2019-01-12T12:23:21.442Z,100630.47
2019-01-12T12:24:25.370Z,100633.17
2019-01-12T12:25:29.704Z,100626.41
2019-01-12T12:26:33.703Z,100625.48
2019-01-12T12:27:37.934Z,100622.88
2019-01-12T12:28:41.890Z,100617.47
2019-01-12T12:29:45.830Z,100615.28
2019-01-12T12:30:49.814Z,100616.63
2019-01-12T12:31:54.063Z,100622.97
2019-01-12T12:32:58.057Z,100626.61
2019-01-12T12:34:02.812Z,100621.84
2019-01-12T12:35:07.338Z,100621.42
2019-01-12T12:36:11.322Z,100624.72
2019-01-12T12:37:15.308Z,100622.58
2019-01-12T12:38:19.397Z,100623.55
2019-01-12T12:39:23.379Z,100613.67
2019-01-12T12:40:27.936Z,100611.05
2019-01-12T12:41:31.863Z,100609.70
2019-01-12T12:42:35.852Z,100610.59
2019-01-12T12:43:40.025Z,100606.06
2019-01-12T12:44:44.187Z,100591.59
2019-01-12T12:45:48.353Z,100587.02
2019-01-12T12:46:52.954Z,100591.03
2019-01-12T12:47:56.922Z,100586.88
2019-01-12T12:49:00.913Z,100581.47
2019-01-12T12:50:07.127Z,100584.09
2019-01-12T12:51:11.345Z,100583.20
2019-01-12T12:52:15.605Z,100581.81
2019-01-12T12:53:19.693Z,100580.04
2019-01-12T12:54:23.680Z,100575.59
2019-01-12T12:55:27.833Z,100564.78
2019-01-12T12:56:32.248Z,100558.97
2019-01-12T12:57:36.490Z,100542.80
2019-01-12T12:58:40.441Z,100554.95
2019-01-12T12:59:44.363Z,100546.38
2019-01-12T13:00:48.615Z,100541.91
2019-01-12T13:01:52.827Z,100543.55
2019-01-12T13:02:56.966Z,100540.09
2019-01-12T13:04:01.116Z,100534.32
2019-01-12T13:05:07.230Z,100530.31
2019-01-12T13:06:11.710Z,100528.55
2019-01-12T13:07:15.702Z,100527.69
2019-01-12T13:08:19.702Z,100520.94
2019-01-12T13:09:23.929Z,100515.45
2019-01-12T13:10:29.927Z,100513.21